Time;durP1;ratioP1;P1;durP2;ratioP2;P2;SDS_P1;SDS_P2;PMS_P1;PMS_P2;Temp;Humidity;BMP_temperature;BMP_pressure;BME280_temperature;BME280_humidity;BME280_pressure;Samples;Min_cycle;Max_cycle;Signal;HPM_P1;HPM_P2
2022/12/08 00:01:31;;;;;;;4.80;4.57;;;;;;;;;;5011006;28;20439;-67
2022/12/08 00:04:01;;;;;;;4.87;4.67;;;;;;;;;;5011969;28;20514;-67
2022/12/08 00:09:22;;;;;;;5.20;4.70;;;;;;;;;;5011211;28;20477;-67
2022/12/08 00:11:56;;;;;;;5.07;4.77;;;;;;;;;;5011441;28;20944;-67
2022/12/08 00:14:23;;;;;;;5.83;4.43;;;;;;;;;;5011968;28;21003;-67
2022/12/08 00:16:49;;;;;;;5.03;4.40;;;;;;;;;;5011084;28;20428;-67
2022/12/08 00:19:16;;;;;;;5.10;4.70;;;;;;;;;;5012033;28;20483;-67
2022/12/08 00:21:42;;;;;;;5.60;5.00;;;;;;;;;;4993976;28;20443;-67
2022/12/08 00:24:08;;;;;;;6.97;5.90;;;;;;;;;;5011888;28;20428;-67
2022/12/08 00:26:34;;;;;;;5.40;4.87;;;;;;;;;;5009548;28;20436;-67
2022/12/08 00:29:00;;;;;;;7.00;5.07;;;;;;;;;;4993571;28;20447;-67
2022/12/08 00:31:25;;;;;;;5.77;5.13;;;;;;;;;;5011043;28;20648;-67
2022/12/08 00:33:52;;;;;;;6.40;4.80;;;;;;;;;;5009055;28;20446;-67
2022/12/08 00:36:17;;;;;;;4.90;4.50;;;;;;;;;;5011321;28;20432;-67
2022/12/08 00:38:45;;;;;;;4.37;4.17;;;;;;;;;;5009529;28;20541;-67
2022/12/08 00:41:13;;;;;;;4.40;4.00;;;;;;;;;;5009806;28;20440;-67
2022/12/08 00:43:39;;;;;;;6.47;4.27;;;;;;;;;;5009134;28;20472;-67
2022/12/08 00:46:05;;;;;;;4.93;4.23;;;;;;;;;;5011531;28;20424;-67
2022/12/08 00:48:31;;;;;;;4.20;4.00;;;;;;;;;;5011133;28;20531;-67
2022/12/08 00:50:57;;;;;;;3.93;3.63;;;;;;;;;;5011528;28;20559;-67
2022/12/08 00:53:23;;;;;;;7.37;4.10;;;;;;;;;;5010303;28;20444;-67
2022/12/08 00:55:48;;;;;;;4.47;3.67;;;;;;;;;;4992763;28;20455;-67
2022/12/08 00:58:14;;;;;;;3.90;3.60;;;;;;;;;;5010837;28;20503;-67
2022/12/08 01:00:41;;;;;;;3.47;3.27;;;;;;;;;;5009962;28;20447;-67
2022/12/08 01:03:10;;;;;;;4.90;4.50;;;;;;;;;;5010599;28;20413;-68
2022/12/08 01:05:36;;;;;;;4.40;4.10;;;;;;;;;;5010248;28;20444;-67
2022/12/08 01:08:05;;;;;;;3.03;2.70;;;;;;;;;;5010946;28;20424;-67
2022/12/08 01:10:31;;;;;;;2.97;2.87;;;;;;;;;;5010870;28;20428;-67
2022/12/08 01:12:58;;;;;;;4.07;3.70;;;;;;;;;;5010886;28;20436;-67
2022/12/08 01:15:24;;;;;;;5.10;3.50;;;;;;;;;;5010178;28;20856;-67
2022/12/08 01:17:50;;;;;;;3.77;3.60;;;;;;;;;;5010795;28;20971;-67
2022/12/08 01:20:16;;;;;;;3.83;3.63;;;;;;;;;;5010450;28;20808;-67
2022/12/08 01:22:41;;;;;;;4.80;3.83;;;;;;;;;;5011035;28;20443;-67
2022/12/08 01:25:08;;;;;;;3.40;3.30;;;;;;;;;;5010649;28;20468;-67
2022/12/08 01:27:34;;;;;;;4.07;3.83;;;;;;;;;;5010053;28;20541;-67
2022/12/08 01:30:00;;;;;;;4.17;3.73;;;;;;;;;;5010956;28;20908;-67
2022/12/08 01:32:25;;;;;;;3.53;3.43;;;;;;;;;;5010644;28;20432;-67
2022/12/08 01:34:51;;;;;;;4.87;4.57;;;;;;;;;;5009959;28;20448;-67
2022/12/08 01:37:17;;;;;;;4.00;3.80;;;;;;;;;;5010208;28;20427;-67
2022/12/08 01:39:43;;;;;;;7.50;4.50;;;;;;;;;;5010219;28;21059;-67
2022/12/08 01:42:20;;;;;;;4.77;4.37;;;;;;;;;;5010405;28;20432;-67
2022/12/08 01:44:51;;;;;;;4.00;3.77;;;;;;;;;;5010145;28;21007;-67
2022/12/08 01:47:17;;;;;;;3.93;3.73;;;;;;;;;;5010467;28;20432;-67
2022/12/08 01:49:43;;;;;;;4.13;4.00;;;;;;;;;;4991957;28;20459;-67
2022/12/08 01:52:13;;;;;;;4.10;3.90;;;;;;;;;;5008446;28;20432;-67
2022/12/08 01:54:43;;;;;;;3.67;3.53;;;;;;;;;;4991700;28;20486;-67
2022/12/08 01:57:09;;;;;;;8.77;4.80;;;;;;;;;;5008961;28;20427;-67
2022/12/08 01:59:38;;;;;;;5.07;4.07;;;;;;;;;;5009653;28;20538;-67
2022/12/08 02:02:04;;;;;;;4.33;4.03;;;;;;;;;;5009429;28;20428;-67
2022/12/08 02:04:30;;;;;;;3.77;3.63;;;;;;;;;;5009848;28;20450;-67
2022/12/08 02:06:57;;;;;;;3.77;3.47;;;;;;;;;;5010242;28;20428;-67
2022/12/08 02:09:24;;;;;;;4.10;3.80;;;;;;;;;;5008858;28;20420;-67
2022/12/08 02:11:50;;;;;;;6.07;4.30;;;;;;;;;;5010087;28;20466;-67
2022/12/08 02:14:16;;;;;;;7.37;3.90;;;;;;;;;;5009840;28;20857;-67
2022/12/08 02:16:42;;;;;;;4.40;4.10;;;;;;;;;;5009401;28;21159;-67
2022/12/08 02:19:14;;;;;;;4.60;4.20;;;;;;;;;;5009031;28;20513;-67
2022/12/08 02:21:52;;;;;;;4.70;4.30;;;;;;;;;;5010047;28;20435;-67
2022/12/08 02:24:37;;;;;;;4.70;4.40;;;;;;;;;;5009680;28;20491;-67
2022/12/08 02:27:03;;;;;;;4.70;4.40;;;;;;;;;;5009160;28;20512;-67
2022/12/08 02:29:45;;;;;;;6.50;4.90;;;;;;;;;;4991843;28;20531;-67
2022/12/08 02:32:37;;;;;;;5.40;4.90;;;;;;;;;;5009547;28;20432;-67
2022/12/08 02:35:16;;;;;;;5.50;5.17;;;;;;;;;;5008461;28;20531;-67
2022/12/08 02:37:55;;;;;;;6.10;4.97;;;;;;;;;;5008690;28;20514;-67
2022/12/08 02:40:24;;;;;;;5.70;5.30;;;;;;;;;;5009411;28;21218;-67
2022/12/08 02:43:03;;;;;;;6.33;5.70;;;;;;;;;;5008211;28;20950;-67
2022/12/08 02:45:35;;;;;;;6.07;5.20;;;;;;;;;;4991931;28;20471;-67
2022/12/08 02:48:02;;;;;;;5.17;4.77;;;;;;;;;;5008932;28;20462;-67
2022/12/08 02:50:28;;;;;;;5.47;5.17;;;;;;;;;;5010891;28;20444;-67
2022/12/08 02:52:54;;;;;;;6.60;5.60;;;;;;;;;;5013692;28;20435;-67
2022/12/08 02:55:24;;;;;;;5.13;4.67;;;;;;;;;;5013678;28;20451;-67
2022/12/08 02:58:07;;;;;;;5.10;4.80;;;;;;;;;;5011959;28;20510;-67
2022/12/08 03:00:51;;;;;;;5.60;5.20;;;;;;;;;;4995525;28;20506;-67
2022/12/08 03:03:24;;;;;;;8.07;5.93;;;;;;;;;;5012517;28;21017;-67
2022/12/08 03:06:05;;;;;;;8.10;6.23;;;;;;;;;;5013458;28;20501;-67
2022/12/08 03:08:40;;;;;;;12.07;6.20;;;;;;;;;;4995941;28;20428;-67
2022/12/08 03:11:09;;;;;;;8.63;6.37;;;;;;;;;;5013302;28;20428;-67
2022/12/08 03:13:40;;;;;;;21.13;9.27;;;;;;;;;;5011668;28;20447;-67
2022/12/08 03:16:07;;;;;;;15.40;8.40;;;;;;;;;;5012493;28;20939;-67
2022/12/08 03:18:36;;;;;;;18.70;9.57;;;;;;;;;;5013563;28;20483;-67
2022/12/08 03:21:02;;;;;;;18.73;10.47;;;;;;;;;;5012765;28;20448;-67
2022/12/08 03:23:29;;;;;;;21.33;9.80;;;;;;;;;;5012967;28;20920;-67
2022/12/08 03:26:10;;;;;;;23.17;9.50;;;;;;;;;;5012151;28;20427;-67
2022/12/08 03:28:37;;;;;;;21.03;9.63;;;;;;;;;;5013476;28;20424;-67
2022/12/08 03:31:06;;;;;;;15.70;9.20;;;;;;;;;;5012669;28;20440;-67
2022/12/08 03:33:37;;;;;;;14.50;6.83;;;;;;;;;;5012367;28;21014;-67
2022/12/08 03:36:04;;;;;;;13.07;7.30;;;;;;;;;;5011044;28;20438;-67
2022/12/08 03:38:37;;;;;;;7.73;5.47;;;;;;;;;;5009815;28;20490;-67
2022/12/08 03:41:18;;;;;;;14.37;7.40;;;;;;;;;;5010963;28;20530;-67
2022/12/08 03:43:55;;;;;;;10.57;8.27;;;;;;;;;;5011570;28;20991;-67
2022/12/08 03:46:22;;;;;;;19.33;9.40;;;;;;;;;;5011202;28;20814;-67
2022/12/08 03:48:48;;;;;;;12.23;9.10;;;;;;;;;;4994830;28;20424;-67
2022/12/08 03:51:15;;;;;;;18.20;10.30;;;;;;;;;;5012066;28;20443;-67
2022/12/08 03:53:42;;;;;;;14.93;9.07;;;;;;;;;;5011853;28;20476;-67
2022/12/08 03:56:28;;;;;;;18.90;8.43;;;;;;;;;;5011976;28;20963;-67
2022/12/08 03:58:54;;;;;;;11.83;6.60;;;;;;;;;;5012515;28;20566;-68
2022/12/08 04:01:20;;;;;;;10.97;7.43;;;;;;;;;;5011620;28;20444;-67
2022/12/08 04:03:46;;;;;;;11.03;7.47;;;;;;;;;;5010981;28;20454;-67
2022/12/08 04:06:12;;;;;;;18.30;10.03;;;;;;;;;;5011791;28;21869;-67
2022/12/08 04:08:38;;;;;;;21.97;10.37;;;;;;;;;;5012529;28;20436;-67
2022/12/08 04:11:05;;;;;;;18.77;11.53;;;;;;;;;;5011757;28;20436;-67
2022/12/08 04:13:31;;;;;;;21.50;10.33;;;;;;;;;;5011640;28;20440;-67
2022/12/08 04:15:57;;;;;;;17.70;11.17;;;;;;;;;;5010095;28;20555;-67
2022/12/08 04:18:23;;;;;;;16.27;10.50;;;;;;;;;;5012609;28;20571;-67
2022/12/08 04:20:49;;;;;;;17.20;10.77;;;;;;;;;;5012097;28;20436;-67
2022/12/08 04:23:15;;;;;;;17.03;9.10;;;;;;;;;;5011804;28;20428;-67
2022/12/08 04:25:41;;;;;;;17.83;8.07;;;;;;;;;;5011798;28;20802;-67
2022/12/08 04:28:07;;;;;;;20.00;8.90;;;;;;;;;;5011689;28;20428;-67
2022/12/08 04:30:34;;;;;;;15.07;10.10;;;;;;;;;;5010775;28;20443;-67
2022/12/08 04:32:59;;;;;;;16.33;9.30;;;;;;;;;;4993962;28;20810;-67
2022/12/08 04:35:26;;;;;;;21.83;11.00;;;;;;;;;;5010915;28;20427;-67
2022/12/08 04:37:52;;;;;;;21.30;11.20;;;;;;;;;;4994278;28;20798;-67
2022/12/08 04:40:18;;;;;;;14.10;9.27;;;;;;;;;;5010805;28;20875;-67
2022/12/08 04:42:44;;;;;;;13.07;8.80;;;;;;;;;;5011154;28;20975;-67
2022/12/08 04:45:10;;;;;;;14.27;8.87;;;;;;;;;;5011020;28;20436;-67
2022/12/08 04:47:36;;;;;;;15.03;8.70;;;;;;;;;;5011515;28;20440;-67
2022/12/08 04:50:03;;;;;;;11.97;8.33;;;;;;;;;;4993613;28;20428;-67
2022/12/08 04:52:29;;;;;;;14.00;8.23;;;;;;;;;;5011485;28;20440;-67
2022/12/08 04:54:55;;;;;;;18.13;9.83;;;;;;;;;;5011426;28;20768;-67
2022/12/08 04:57:20;;;;;;;14.37;9.60;;;;;;;;;;5011012;28;20656;-67
2022/12/08 04:59:46;;;;;;;13.67;8.13;;;;;;;;;;5011197;28;20492;-67
2022/12/08 05:02:12;;;;;;;10.33;7.97;;;;;;;;;;5010801;28;20421;-68
2022/12/08 05:04:38;;;;;;;14.00;8.40;;;;;;;;;;5010677;28;20474;-67
2022/12/08 05:07:04;;;;;;;12.87;8.17;;;;;;;;;;5010315;28;20551;-67
2022/12/08 05:09:30;;;;;;;15.63;8.20;;;;;;;;;;4992910;28;20469;-67
2022/12/08 05:11:56;;;;;;;12.80;8.77;;;;;;;;;;5010646;28;20428;-67
2022/12/08 05:14:22;;;;;;;13.57;7.73;;;;;;;;;;5010752;28;20478;-67
2022/12/08 05:16:48;;;;;;;12.73;8.30;;;;;;;;;;5010550;28;20921;-67
2022/12/08 05:19:15;;;;;;;13.07;9.30;;;;;;;;;;5009598;28;20495;-67
2022/12/08 05:21:41;;;;;;;13.47;9.13;;;;;;;;;;5009887;28;20789;-67
2022/12/08 05:24:07;;;;;;;10.83;8.40;;;;;;;;;;5011029;28;20463;-67
2022/12/08 05:26:33;;;;;;;13.10;8.83;;;;;;;;;;5010392;28;20452;-67
2022/12/08 05:28:59;;;;;;;15.90;10.40;;;;;;;;;;5010111;28;20982;-67
2022/12/08 05:31:25;;;;;;;15.37;10.27;;;;;;;;;;5009958;28;20432;-67
2022/12/08 05:33:51;;;;;;;14.40;9.77;;;;;;;;;;4992723;28;21075;-67
2022/12/08 05:36:18;;;;;;;17.80;12.20;;;;;;;;;;5009981;28;20416;-67
2022/12/08 05:38:44;;;;;;;12.17;9.30;;;;;;;;;;5010667;28;20488;-67
2022/12/08 05:41:12;;;;;;;12.50;9.03;;;;;;;;;;4992637;28;20432;-67
2022/12/08 05:43:38;;;;;;;9.73;8.53;;;;;;;;;;5010080;28;20494;-67
2022/12/08 05:46:05;;;;;;;10.80;7.57;;;;;;;;;;5009688;28;20932;-67
2022/12/08 05:48:30;;;;;;;8.70;7.57;;;;;;;;;;5010074;28;20460;-67
2022/12/08 05:50:56;;;;;;;9.03;8.20;;;;;;;;;;5010403;28;20462;-67
2022/12/08 05:53:22;;;;;;;10.80;7.97;;;;;;;;;;5009424;28;20439;-67
2022/12/08 05:55:48;;;;;;;11.53;8.33;;;;;;;;;;5007888;28;20440;-67
2022/12/08 05:58:16;;;;;;;8.10;7.30;;;;;;;;;;5010339;28;20897;-67
2022/12/08 06:00:42;;;;;;;6.83;6.23;;;;;;;;;;5008844;28;20444;-67
2022/12/08 06:03:10;;;;;;;5.70;5.37;;;;;;;;;;5009768;28;20456;-67
2022/12/08 06:05:36;;;;;;;6.10;5.50;;;;;;;;;;5008648;28;22216;-67
2022/12/08 06:08:02;;;;;;;9.30;7.33;;;;;;;;;;5008885;28;20530;-67
2022/12/08 06:10:28;;;;;;;9.30;8.43;;;;;;;;;;5009903;28;20520;-67
2022/12/08 06:12:54;;;;;;;12.10;7.83;;;;;;;;;;5009334;28;20447;-68
2022/12/08 06:15:20;;;;;;;12.70;7.17;;;;;;;;;;5008728;28;20440;-67
2022/12/08 06:17:46;;;;;;;11.23;8.37;;;;;;;;;;5008797;28;20486;-67
2022/12/08 06:20:12;;;;;;;8.40;7.60;;;;;;;;;;5008048;28;20455;-68
2022/12/08 06:22:38;;;;;;;15.43;10.17;;;;;;;;;;4992726;28;20435;-67
2022/12/08 06:25:04;;;;;;;14.40;11.30;;;;;;;;;;5006069;28;20460;-67
2022/12/08 06:27:30;;;;;;;15.30;10.10;;;;;;;;;;5008954;28;20575;-67
2022/12/08 06:29:56;;;;;;;11.10;7.10;;;;;;;;;;5008870;28;20530;-68
2022/12/08 06:32:22;;;;;;;8.90;6.77;;;;;;;;;;5009030;28;20574;-67
2022/12/08 06:34:48;;;;;;;6.40;5.90;;;;;;;;;;5008956;28;20420;-67
2022/12/08 06:37:14;;;;;;;7.83;6.90;;;;;;;;;;5007773;28;20435;-67
2022/12/08 06:39:41;;;;;;;9.90;5.83;;;;;;;;;;5009068;28;20487;-67
2022/12/08 06:43:07;;;;;;;7.17;5.67;;;;;;;;;;5009237;28;20451;-67
2022/12/08 06:45:02;;;;;;;4.80;4.50;;;;;;;;;;4994775;28;20483;-67
2022/12/08 06:47:28;;;;;;;4.53;4.20;;;;;;;;;;5008624;28;20944;-67
2022/12/08 06:49:54;;;;;;;4.87;4.50;;;;;;;;;;5009042;28;20413;-67
2022/12/08 06:52:20;;;;;;;5.00;4.57;;;;;;;;;;5009283;28;20908;-67
2022/12/08 06:54:46;;;;;;;4.63;4.23;;;;;;;;;;5008556;28;20420;-67
2022/12/08 06:57:12;;;;;;;5.80;4.20;;;;;;;;;;5008544;28;20464;-67
2022/12/08 06:59:38;;;;;;;7.03;6.43;;;;;;;;;;5009425;28;20999;-67
2022/12/08 07:02:04;;;;;;;7.70;7.00;;;;;;;;;;5008178;28;20428;-67
2022/12/08 07:04:30;;;;;;;10.50;7.27;;;;;;;;;;5008374;28;20444;-67
2022/12/08 07:06:56;;;;;;;5.77;5.27;;;;;;;;;;5008253;28;20420;-67
2022/12/08 07:09:22;;;;;;;5.37;5.07;;;;;;;;;;5005062;28;20963;-67
2022/12/08 07:11:48;;;;;;;4.63;4.43;;;;;;;;;;5007392;28;20494;-68
2022/12/08 07:14:14;;;;;;;4.53;4.23;;;;;;;;;;5007765;28;20444;-67
2022/12/08 07:16:40;;;;;;;5.63;5.07;;;;;;;;;;5006916;28;20436;-67
2022/12/08 07:19:06;;;;;;;4.70;4.30;;;;;;;;;;5008948;28;21012;-67
2022/12/08 07:21:32;;;;;;;4.87;4.47;;;;;;;;;;5008422;28;20448;-67
2022/12/08 07:23:58;;;;;;;3.50;3.40;;;;;;;;;;4991584;28;20501;-67
2022/12/08 07:26:24;;;;;;;3.73;3.53;;;;;;;;;;5007556;28;20456;-67
2022/12/08 07:28:50;;;;;;;4.17;3.40;;;;;;;;;;5008610;28;20479;-67
2022/12/08 07:31:17;;;;;;;3.97;3.77;;;;;;;;;;5009286;28;20431;-67
2022/12/08 07:33:43;;;;;;;5.20;4.80;;;;;;;;;;5008597;28;20452;-67
2022/12/08 07:36:09;;;;;;;5.40;4.90;;;;;;;;;;5009339;28;20432;-67
2022/12/08 07:38:35;;;;;;;6.50;4.90;;;;;;;;;;5011442;28;20487;-67
2022/12/08 07:41:01;;;;;;;7.27;6.60;;;;;;;;;;5012388;28;20432;-67
2022/12/08 07:43:27;;;;;;;10.10;6.67;;;;;;;;;;5012044;28;20537;-67
2022/12/08 07:45:53;;;;;;;9.50;7.97;;;;;;;;;;5013300;28;20939;-67
2022/12/08 07:48:19;;;;;;;7.70;6.90;;;;;;;;;;5012655;28;20771;-67
2022/12/08 07:50:46;;;;;;;8.27;7.50;;;;;;;;;;5012773;28;20923;-67
2022/12/08 07:53:12;;;;;;;8.50;7.60;;;;;;;;;;5012384;28;20523;-67
2022/12/08 07:55:42;;;;;;;8.43;7.53;;;;;;;;;;5012111;28;20436;-67
2022/12/08 07:58:08;;;;;;;7.50;6.80;;;;;;;;;;5012677;28;20460;-67
2022/12/08 08:00:34;;;;;;;8.90;7.40;;;;;;;;;;5012275;28;20935;-67
2022/12/08 08:03:00;;;;;;;8.60;7.77;;;;;;;;;;5012209;28;20948;-67
2022/12/08 08:05:26;;;;;;;7.20;6.57;;;;;;;;;;5011371;28;20436;-67
2022/12/08 08:07:52;;;;;;;9.27;6.90;;;;;;;;;;5009322;28;20440;-67
2022/12/08 08:10:18;;;;;;;12.40;8.77;;;;;;;;;;5012076;28;20970;-67
2022/12/08 08:12:44;;;;;;;7.40;6.70;;;;;;;;;;5012293;28;20439;-67
2022/12/08 08:15:13;;;;;;;9.83;6.40;;;;;;;;;;5011849;28;20921;-67
2022/12/08 08:17:39;;;;;;;19.40;8.17;;;;;;;;;;5012699;28;20427;-67
2022/12/08 08:20:06;;;;;;;8.47;7.10;;;;;;;;;;5012274;28;21017;-67
2022/12/08 08:22:33;;;;;;;10.50;6.80;;;;;;;;;;5012342;28;20652;-67
2022/12/08 08:24:59;;;;;;;6.23;5.73;;;;;;;;;;5010999;28;20432;-67
2022/12/08 08:27:25;;;;;;;7.20;5.87;;;;;;;;;;5011913;28;20947;-67
2022/12/08 08:29:52;;;;;;;6.70;6.10;;;;;;;;;;5012096;28;20428;-67
2022/12/08 08:32:18;;;;;;;5.80;5.30;;;;;;;;;;5012134;28;20441;-67
2022/12/08 08:34:44;;;;;;;15.53;6.47;;;;;;;;;;5010024;28;20579;-67
2022/12/08 08:37:10;;;;;;;7.83;6.90;;;;;;;;;;5009096;28;20948;-67
2022/12/08 08:39:36;;;;;;;8.77;7.63;;;;;;;;;;5011314;28;20484;-67
2022/12/08 08:42:02;;;;;;;9.13;6.10;;;;;;;;;;4992464;28;20534;-67
2022/12/08 08:44:28;;;;;;;6.10;5.60;;;;;;;;;;5010607;28;20480;-68
2022/12/08 08:46:54;;;;;;;11.17;7.87;;;;;;;;;;5010169;28;20511;-64
2022/12/08 08:49:20;;;;;;;10.87;9.30;;;;;;;;;;5009372;28;20879;-66
2022/12/08 08:51:46;;;;;;;23.33;9.20;;;;;;;;;;5011756;28;20424;-67
2022/12/08 08:54:12;;;;;;;12.57;8.93;;;;;;;;;;5010173;28;20506;-67
2022/12/08 08:56:38;;;;;;;14.00;9.27;;;;;;;;;;5009907;28;20428;-67
2022/12/08 08:59:04;;;;;;;14.50;10.10;;;;;;;;;;5009155;28;20487;-67
2022/12/08 09:01:30;;;;;;;14.60;10.00;;;;;;;;;;5009322;28;20491;-67
2022/12/08 09:03:56;;;;;;;12.23;9.37;;;;;;;;;;5010544;28;20436;-67
2022/12/08 09:06:23;;;;;;;21.50;10.30;;;;;;;;;;4990681;28;20971;-67
2022/12/08 09:08:50;;;;;;;15.53;10.00;;;;;;;;;;4992607;28;20527;-67
2022/12/08 09:11:17;;;;;;;15.90;10.00;;;;;;;;;;5010207;28;20440;-67
2022/12/08 09:13:43;;;;;;;15.00;11.33;;;;;;;;;;5010243;28;20440;-66
2022/12/08 09:16:10;;;;;;;13.60;9.63;;;;;;;;;;4999014;28;21017;-66
2022/12/08 09:18:36;;;;;;;17.60;10.77;;;;;;;;;;5008031;28;20480;-66
2022/12/08 09:21:11;;;;;;;16.03;11.63;;;;;;;;;;5009706;28;20443;-66
2022/12/08 09:23:37;;;;;;;21.63;11.90;;;;;;;;;;5009448;28;20452;-67
2022/12/08 09:26:04;;;;;;;15.27;10.10;;;;;;;;;;5009809;28;20444;-66
2022/12/08 09:28:30;;;;;;;11.70;8.97;;;;;;;;;;4992289;28;20519;-67
2022/12/08 09:30:56;;;;;;;17.33;10.27;;;;;;;;;;5010075;28;20444;-67
2022/12/08 09:33:22;;;;;;;12.33;9.40;;;;;;;;;;4993145;28;20439;-68
2022/12/08 09:35:48;;;;;;;16.93;11.27;;;;;;;;;;5009835;28;20424;-67
2022/12/08 09:38:14;;;;;;;17.03;10.63;;;;;;;;;;5008884;28;20543;-67
2022/12/08 09:40:48;;;;;;;21.33;10.20;;;;;;;;;;5010376;28;20475;-67
2022/12/08 09:43:22;;;;;;;18.67;10.77;;;;;;;;;;5009049;28;20472;-66
2022/12/08 09:45:50;;;;;;;21.27;11.73;;;;;;;;;;5008266;28;20451;-67
2022/12/08 09:48:22;;;;;;;16.40;10.80;;;;;;;;;;5009219;28;20530;-67
2022/12/08 09:50:48;;;;;;;19.77;14.00;;;;;;;;;;5009927;28;20438;-65
2022/12/08 09:53:17;;;;;;;16.10;9.60;;;;;;;;;;5007893;28;20417;-67
2022/12/08 09:55:51;;;;;;;15.33;10.40;;;;;;;;;;5005936;28;22004;-65
2022/12/08 09:58:21;;;;;;;14.27;10.50;;;;;;;;;;5008665;28;20480;-66
2022/12/08 10:00:47;;;;;;;15.17;9.43;;;;;;;;;;5006892;28;20463;-67
2022/12/08 10:03:13;;;;;;;16.40;10.70;;;;;;;;;;5009332;28;20432;-66
2022/12/08 10:05:44;;;;;;;12.17;8.87;;;;;;;;;;4990587;28;20449;-67
2022/12/08 10:08:18;;;;;;;23.23;9.70;;;;;;;;;;5006389;28;20424;-66
2022/12/08 10:11:07;;;;;;;18.83;11.10;;;;;;;;;;5006835;28;20442;-67
2022/12/08 10:13:59;;;;;;;28.03;11.77;;;;;;;;;;5007453;28;21169;-67
2022/12/08 10:16:25;;;;;;;27.87;11.83;;;;;;;;;;4959798;28;20559;-67
2022/12/08 10:18:55;;;;;;;22.10;11.03;;;;;;;;;;5008581;28;20523;-67
2022/12/08 10:21:24;;;;;;;15.93;10.50;;;;;;;;;;4992163;28;20784;-66
2022/12/08 10:23:53;;;;;;;20.27;10.80;;;;;;;;;;5009485;28;20511;-67
2022/12/08 10:26:20;;;;;;;17.83;9.63;;;;;;;;;;5008793;28;20435;-67
2022/12/08 10:28:46;;;;;;;14.50;9.77;;;;;;;;;;5007608;28;20841;-67
2022/12/08 10:31:16;;;;;;;19.50;10.00;;;;;;;;;;5009196;28;20443;-67
2022/12/08 10:33:43;;;;;;;17.57;10.30;;;;;;;;;;5008140;28;20435;-67
2022/12/08 10:36:09;;;;;;;17.10;9.93;;;;;;;;;;5008856;28;20432;-67
2022/12/08 10:38:36;;;;;;;14.57;9.60;;;;;;;;;;5007432;28;20467;-67
2022/12/08 10:41:08;;;;;;;17.50;11.57;;;;;;;;;;5008739;28;20436;-66
2022/12/08 10:43:37;;;;;;;14.60;9.73;;;;;;;;;;5008678;28;20568;-67
2022/12/08 10:46:10;;;;;;;17.90;9.97;;;;;;;;;;5008571;28;21614;-66
2022/12/08 10:48:36;;;;;;;16.33;10.43;;;;;;;;;;5009577;28;20428;-67
2022/12/08 10:51:04;;;;;;;14.60;9.70;;;;;;;;;;5008470;28;20442;-66
2022/12/08 10:53:31;;;;;;;15.23;9.67;;;;;;;;;;5006170;28;20436;-66
2022/12/08 10:55:57;;;;;;;13.67;9.07;;;;;;;;;;5006660;28;20470;-67
2022/12/08 10:58:25;;;;;;;19.93;11.17;;;;;;;;;;5007378;28;20503;-67
2022/12/08 11:00:53;;;;;;;21.00;11.73;;;;;;;;;;4990817;28;20527;-67
2022/12/08 11:03:24;;;;;;;18.43;10.77;;;;;;;;;;5008304;28;20820;-67
2022/12/08 11:05:54;;;;;;;20.10;11.23;;;;;;;;;;5008007;28;21008;-67
2022/12/08 11:08:21;;;;;;;26.27;11.37;;;;;;;;;;5007361;28;20464;-67
2022/12/08 11:10:47;;;;;;;20.90;12.23;;;;;;;;;;5009387;28;20451;-67
2022/12/08 11:13:20;;;;;;;20.80;12.07;;;;;;;;;;4995188;28;20428;-67
2022/12/08 11:15:46;;;;;;;18.17;10.37;;;;;;;;;;5013470;28;20436;-66
2022/12/08 11:18:29;;;;;;;25.80;13.77;;;;;;;;;;5012976;28;20467;-67
2022/12/08 11:21:00;;;;;;;25.17;11.97;;;;;;;;;;5012957;28;20440;-67
2022/12/08 11:23:26;;;;;;;23.83;13.50;;;;;;;;;;5012478;28;20454;-67
2022/12/08 11:25:53;;;;;;;27.20;13.20;;;;;;;;;;5012859;28;20436;-67
2022/12/08 11:28:22;;;;;;;19.97;13.30;;;;;;;;;;5012526;28;20435;-67
2022/12/08 11:30:53;;;;;;;45.83;26.30;;;;;;;;;;5012595;28;20468;-67
2022/12/08 11:33:21;;;;;;;16.87;11.00;;;;;;;;;;5013062;28;20479;-67
2022/12/08 11:35:49;;;;;;;26.30;15.10;;;;;;;;;;4994685;28;20462;-67
2022/12/08 11:38:23;;;;;;;28.17;15.70;;;;;;;;;;5013439;28;20463;-67
2022/12/08 11:40:54;;;;;;;69.13;33.23;;;;;;;;;;5012378;28;20436;-67
2022/12/08 11:43:23;;;;;;;63.20;29.90;;;;;;;;;;5009751;28;20562;-67
2022/12/08 11:45:52;;;;;;;39.60;22.27;;;;;;;;;;5012252;28;20442;-67
2022/12/08 11:48:31;;;;;;;25.47;14.00;;;;;;;;;;4994077;28;20446;-67
2022/12/08 11:51:04;;;;;;;23.80;13.90;;;;;;;;;;5011725;28;20420;-67
2022/12/08 11:53:30;;;;;;;16.20;11.63;;;;;;;;;;5012044;28;20805;-67
2022/12/08 11:56:03;;;;;;;24.93;13.83;;;;;;;;;;5011004;28;20432;-67
2022/12/08 11:58:40;;;;;;;19.40;10.47;;;;;;;;;;5009420;28;20475;-66
2022/12/08 12:01:13;;;;;;;29.37;16.70;;;;;;;;;;5010698;28;20448;-67
2022/12/08 12:03:43;;;;;;;47.57;25.70;;;;;;;;;;5012741;28;20981;-66
2022/12/08 12:06:24;;;;;;;20.33;11.67;;;;;;;;;;4992039;28;20448;-66
2022/12/08 12:09:09;;;;;;;28.07;13.57;;;;;;;;;;5010468;28;20459;-67
2022/12/08 12:14:59;;;;;;;18.80;12.83;;;;;;;;;;5011171;28;20439;-66
2022/12/08 12:17:47;;;;;;;24.40;14.83;;;;;;;;;;5011581;28;20515;-67
2022/12/08 12:20:22;;;;;;;20.83;13.17;;;;;;;;;;5009683;28;20483;-67
2022/12/08 12:22:52;;;;;;;28.10;14.47;;;;;;;;;;5010437;28;20431;-67
2022/12/08 12:25:20;;;;;;;19.93;12.40;;;;;;;;;;4992920;28;20579;-67
2022/12/08 12:27:48;;;;;;;21.50;13.67;;;;;;;;;;4994479;28;20429;-67
2022/12/08 12:30:28;;;;;;;24.60;12.40;;;;;;;;;;4993398;28;20606;-67
2022/12/08 12:32:56;;;;;;;22.50;13.07;;;;;;;;;;5010088;28;20463;-66
2022/12/08 12:35:34;;;;;;;21.30;12.73;;;;;;;;;;5010964;28;20928;-67
2022/12/08 12:38:02;;;;;;;21.63;12.83;;;;;;;;;;5010302;28;20458;-67
2022/12/08 12:40:33;;;;;;;20.07;12.97;;;;;;;;;;5010738;28;20479;-67
2022/12/08 12:42:59;;;;;;;24.40;13.93;;;;;;;;;;5009113;28;20464;-67
2022/12/08 12:45:27;;;;;;;19.73;11.33;;;;;;;;;;5011200;28;20436;-66
2022/12/08 12:47:59;;;;;;;15.43;11.30;;;;;;;;;;5009232;28;20428;-67
2022/12/08 12:50:28;;;;;;;41.47;28.13;;;;;;;;;;5008982;28;20541;-67
2022/12/08 12:52:54;;;;;;;25.57;15.80;;;;;;;;;;5009291;28;20509;-66
2022/12/08 12:55:21;;;;;;;20.80;11.37;;;;;;;;;;5009919;28;20428;-67
2022/12/08 12:58:10;;;;;;;36.60;11.87;;;;;;;;;;5010860;28;20443;-67
2022/12/08 13:00:36;;;;;;;20.00;12.20;;;;;;;;;;5009061;28;20448;-67
2022/12/08 13:03:02;;;;;;;15.60;11.13;;;;;;;;;;5010905;28;20443;-67
2022/12/08 13:05:33;;;;;;;19.17;11.10;;;;;;;;;;5011007;28;20448;-67
2022/12/08 13:07:59;;;;;;;28.73;15.10;;;;;;;;;;5011097;28;20428;-66
2022/12/08 13:10:29;;;;;;;17.47;11.17;;;;;;;;;;5010300;28;20958;-68
2022/12/08 13:13:27;;;;;;;20.63;13.00;;;;;;;;;;5011151;28;20439;-67
2022/12/08 13:15:59;;;;;;;17.70;11.53;;;;;;;;;;4966786;28;20440;-67
2022/12/08 13:18:35;;;;;;;15.20;9.80;;;;;;;;;;5009894;28;20472;-67
2022/12/08 13:21:10;;;;;;;23.10;10.40;;;;;;;;;;5010524;28;20799;-66
2022/12/08 13:23:39;;;;;;;15.53;10.20;;;;;;;;;;5010482;28;20939;-66
2022/12/08 13:26:17;;;;;;;17.10;10.77;;;;;;;;;;4992710;28;20440;-66
2022/12/08 13:29:05;;;;;;;13.50;10.07;;;;;;;;;;5009748;28;20417;-67
2022/12/08 13:31:35;;;;;;;16.30;11.10;;;;;;;;;;5010696;28;20433;-67
2022/12/08 13:34:04;;;;;;;23.10;12.00;;;;;;;;;;5009396;28;20518;-67
2022/12/08 13:36:33;;;;;;;23.03;13.77;;;;;;;;;;5008903;28;20836;-67
2022/12/08 13:38:59;;;;;;;42.20;21.37;;;;;;;;;;5011062;28;20471;-67
2022/12/08 13:41:31;;;;;;;12.90;10.30;;;;;;;;;;5010022;28;20547;-67
2022/12/08 13:44:03;;;;;;;15.67;9.37;;;;;;;;;;4993328;28;20515;-67
2022/12/08 13:46:38;;;;;;;43.13;22.50;;;;;;;;;;5009462;28;20467;-67
2022/12/08 13:49:04;;;;;;;32.27;17.43;;;;;;;;;;5010341;28;20531;-67
2022/12/08 13:51:49;;;;;;;19.30;9.53;;;;;;;;;;4993024;28;20439;-67
2022/12/08 13:54:15;;;;;;;24.10;12.03;;;;;;;;;;5009613;28;20498;-67
2022/12/08 13:56:42;;;;;;;22.60;15.37;;;;;;;;;;5010240;28;20527;-67
2022/12/08 13:59:09;;;;;;;21.10;14.07;;;;;;;;;;5010034;28;20472;-67
2022/12/08 14:01:42;;;;;;;29.43;15.80;;;;;;;;;;5009891;28;20471;-67
2022/12/08 14:04:22;;;;;;;29.10;16.13;;;;;;;;;;5010715;28;20515;-67
2022/12/08 14:06:49;;;;;;;40.20;21.80;;;;;;;;;;5010310;28;20948;-67
2022/12/08 14:09:17;;;;;;;65.77;29.83;;;;;;;;;;5010097;28;20429;-67
2022/12/08 14:11:49;;;;;;;47.03;21.80;;;;;;;;;;5009034;28;20960;-67
2022/12/08 14:14:17;;;;;;;27.50;16.90;;;;;;;;;;5010068;28;20540;-67
2022/12/08 14:16:48;;;;;;;25.03;13.80;;;;;;;;;;5009460;28;20424;-67
2022/12/08 14:19:16;;;;;;;27.63;16.60;;;;;;;;;;5010426;28;20511;-67
2022/12/08 14:21:46;;;;;;;25.53;15.70;;;;;;;;;;5009579;28;20555;-67
2022/12/08 14:24:12;;;;;;;21.17;14.00;;;;;;;;;;5010424;28;20482;-67
2022/12/08 14:26:38;;;;;;;27.40;16.07;;;;;;;;;;5008573;28;20537;-67
2022/12/08 14:29:06;;;;;;;27.83;14.40;;;;;;;;;;5009973;28;20433;-67
2022/12/08 14:31:32;;;;;;;27.40;14.90;;;;;;;;;;5009821;28;20436;-67
2022/12/08 14:33:58;;;;;;;24.03;13.30;;;;;;;;;;5010272;28;20495;-67
2022/12/08 14:36:24;;;;;;;21.13;13.00;;;;;;;;;;5008976;28;20954;-67
2022/12/08 14:38:51;;;;;;;23.47;13.67;;;;;;;;;;5006986;28;20523;-67
2022/12/08 14:41:24;;;;;;;23.37;12.80;;;;;;;;;;5007778;28;20439;-67
2022/12/08 14:43:58;;;;;;;23.33;13.27;;;;;;;;;;4992239;28;20835;-67
2022/12/08 14:46:24;;;;;;;26.03;14.40;;;;;;;;;;4991119;28;20456;-67